createdAt,value
2019-03-24T00:00:25.343Z,25.6
2019-03-24T00:01:14.269Z,25.5
2019-03-24T00:02:05.458Z,25.5
2019-03-24T00:02:55.228Z,25.4
2019-03-24T00:03:44.799Z,25.4
2019-03-24T00:04:34.830Z,25.4
2019-03-24T00:05:24.869Z,25.4
2019-03-24T00:06:16.049Z,25.3
2019-03-24T00:07:04.979Z,25.3
2019-03-24T00:07:57.407Z,25.3
2019-03-24T00:08:45.944Z,25.3
2019-03-24T00:09:36.287Z,25.3
2019-03-24T00:10:25.801Z,25.3
2019-03-24T00:11:15.516Z,25.2
2019-03-24T00:12:05.648Z,25.2
2019-03-24T00:12:55.466Z,25.1
2019-03-24T00:13:46.039Z,25.1
2019-03-24T00:14:36.954Z,25.1
2019-03-24T00:15:34.494Z,25
2019-03-24T00:16:16.274Z,25
2019-03-24T00:17:06.831Z,24.9
2019-03-24T00:17:55.270Z,24.9
2019-03-24T00:18:47.004Z,24.8
2019-03-24T00:19:36.735Z,24.8
2019-03-24T00:20:27.071Z,24.9
2019-03-24T00:21:16.286Z,25.9
2019-03-24T00:22:06.649Z,26.9
2019-03-24T00:22:56.203Z,27.8
2019-03-24T00:23:47.321Z,28.3
2019-03-24T00:24:36.804Z,28.9
2019-03-24T00:25:27.166Z,29.3
2019-03-24T00:26:16.959Z,29.8
2019-03-24T00:27:06.485Z,30.2
2019-03-24T00:27:56.824Z,30.5
2019-03-24T00:28:47.444Z,30.9
2019-03-24T00:29:36.879Z,31.3
2019-03-24T00:30:26.718Z,31.5
2019-03-24T00:31:17.623Z,31.8
2019-03-24T00:32:06.845Z,32.1
2019-03-24T00:32:57.150Z,32.3
2019-03-24T00:33:47.245Z,32.6
2019-03-24T00:34:36.757Z,32.8
2019-03-24T00:35:27.322Z,32.8
2019-03-24T00:36:17.175Z,33.2
2019-03-24T00:37:07.733Z,33.3
2019-03-24T00:37:58.319Z,32.4
2019-03-24T00:38:47.605Z,32.1
2019-03-24T00:39:37.913Z,32
2019-03-24T00:40:28.252Z,31.7
2019-03-24T00:41:18.032Z,31.1
2019-03-24T00:42:08.412Z,30.4
2019-03-24T00:42:57.600Z,29.7
2019-03-24T00:43:48.759Z,28.9
2019-03-24T00:44:38.272Z,28.1
2019-03-24T00:45:40.009Z,27.4
2019-03-24T00:46:18.099Z,26.8
2019-03-24T00:47:07.359Z,26.5
2019-03-24T00:47:58.836Z,26.2
2019-03-24T00:48:48.914Z,25.9
2019-03-24T00:49:38.618Z,25.8
2019-03-24T00:50:29.262Z,25.7
2019-03-24T00:51:18.457Z,25.6
2019-03-24T00:52:08.835Z,25.4
2019-03-24T00:52:58.032Z,25.4
2019-03-24T00:53:48.410Z,25.4
2019-03-24T00:54:38.177Z,25.3
2019-03-24T00:55:28.757Z,25.3
2019-03-24T00:56:18.566Z,25.3
2019-03-24T00:57:08.909Z,25.3
2019-03-24T00:57:59.233Z,25.2
2019-03-24T00:58:49.134Z,25.2
2019-03-24T00:59:39.944Z,25.2
2019-03-24T01:00:28.872Z,25.2
2019-03-24T01:01:19.481Z,25.1
2019-03-24T01:02:10.119Z,25.1
2019-03-24T01:02:59.604Z,25.1
2019-03-24T01:03:48.838Z,25
2019-03-24T01:04:40.261Z,25
2019-03-24T01:05:28.148Z,25
2019-03-24T01:06:18.470Z,25
2019-03-24T01:07:10.214Z,24.9
2019-03-24T01:08:00.529Z,24.9
2019-03-24T01:08:50.029Z,24.8
2019-03-24T01:09:39.558Z,24.8
2019-03-24T01:10:29.318Z,24.8
2019-03-24T01:11:20.202Z,24.8
2019-03-24T01:12:09.725Z,24.8
2019-03-24T01:13:00.349Z,25.8
2019-03-24T01:13:50.978Z,26.8
2019-03-24T01:14:40.463Z,27.6
2019-03-24T01:15:31.301Z,28.3
2019-03-24T01:16:20.658Z,28.8
2019-03-24T01:17:10.905Z,29.3
2019-03-24T01:18:02.408Z,29.7
2019-03-24T01:18:50.485Z,30.1
2019-03-24T01:19:40.517Z,30.5
2019-03-24T01:20:30.345Z,30.9
2019-03-24T01:21:19.851Z,31.2
2019-03-24T01:22:10.158Z,31.5
2019-03-24T01:23:00.665Z,31.8
2019-03-24T01:23:50.543Z,32.1
2019-03-24T01:24:41.442Z,32.3
2019-03-24T01:25:31.572Z,32.6
2019-03-24T01:26:21.030Z,32.8
2019-03-24T01:27:11.160Z,33
2019-03-24T01:28:00.863Z,33.2
2019-03-24T01:28:50.386Z,33.3
2019-03-24T01:29:41.520Z,32.5
2019-03-24T01:30:31.334Z,32.1
2019-03-24T01:31:21.377Z,32.1
2019-03-24T01:32:11.972Z,31.7
2019-03-24T01:33:00.927Z,31.1
2019-03-24T01:33:51.828Z,30.5
2019-03-24T01:34:41.604Z,29.7
2019-03-24T01:35:31.999Z,28.9
2019-03-24T01:36:22.029Z,28.1
2019-03-24T01:37:12.362Z,27.4
2019-03-24T01:38:02.121Z,26.9
2019-03-24T01:38:52.787Z,26.4
2019-03-24T01:39:42.554Z,26.1
2019-03-24T01:40:32.596Z,25.9
2019-03-24T01:41:22.945Z,25.8
2019-03-24T01:42:12.739Z,25.6
2019-03-24T01:43:02.539Z,25.5
2019-03-24T01:43:52.051Z,25.4
2019-03-24T01:44:42.079Z,25.3
2019-03-24T01:45:32.443Z,25.3
2019-03-24T01:46:21.660Z,25.3
2019-03-24T01:47:12.274Z,25.3
2019-03-24T01:48:03.694Z,25.2
2019-03-24T01:48:53.469Z,25.1
2019-03-24T01:49:43.514Z,25.1
2019-03-24T01:50:33.027Z,25.1
2019-03-24T01:51:23.386Z,25
2019-03-24T01:52:12.600Z,25
2019-03-24T01:53:03.515Z,25
2019-03-24T01:53:54.111Z,24.9
2019-03-24T01:54:43.105Z,24.9
2019-03-24T01:55:33.970Z,24.9
2019-03-24T01:56:24.008Z,24.9
2019-03-24T01:57:14.087Z,24.9
2019-03-24T01:58:03.606Z,24.8
2019-03-24T01:58:53.915Z,24.8
2019-03-24T01:59:43.429Z,24.8
2019-03-24T02:00:34.643Z,24.8
2019-03-24T02:01:23.283Z,24.7
2019-03-24T02:02:13.694Z,24.6
2019-03-24T02:03:03.983Z,24.7
2019-03-24T02:03:54.669Z,25.2
2019-03-24T02:04:44.418Z,26.3
2019-03-24T02:05:34.913Z,27.2
2019-03-24T02:06:23.245Z,27.9
2019-03-24T02:07:14.093Z,28.4
2019-03-24T02:08:04.323Z,28.9
2019-03-24T02:08:54.650Z,29.4
2019-03-24T02:09:44.493Z,29.8
2019-03-24T02:10:33.764Z,30.2
2019-03-24T02:11:25.132Z,30.5
2019-03-24T02:12:14.120Z,30.9
2019-03-24T02:13:04.228Z,30.7
2019-03-24T02:13:54.730Z,29.6
2019-03-24T02:14:44.918Z,27.7
2019-03-24T02:15:34.944Z,26.8
2019-03-24T02:16:24.707Z,26.7
2019-03-24T02:17:13.962Z,27.3
2019-03-24T02:18:04.860Z,28.4
2019-03-24T02:18:55.207Z,29.1
2019-03-24T02:19:44.432Z,29.7
2019-03-24T02:20:34.525Z,30.2
2019-03-24T02:21:24.962Z,30.6
2019-03-24T02:22:14.880Z,30.9
2019-03-24T02:23:05.402Z,31.3
2019-03-24T02:23:54.719Z,31.6
2019-03-24T02:24:45.899Z,31.9
2019-03-24T02:25:34.619Z,32.1
2019-03-24T02:26:24.402Z,32.3
2019-03-24T02:27:15.251Z,32.6
2019-03-24T02:28:05.374Z,32.8
2019-03-24T02:28:55.149Z,32.9
2019-03-24T02:29:44.396Z,33.1
2019-03-24T02:30:35.447Z,33.3
2019-03-24T02:31:25.786Z,33.1
2019-03-24T02:32:16.085Z,32.3
2019-03-24T02:33:05.587Z,32.2
2019-03-24T02:33:55.900Z,32
2019-03-24T02:34:45.431Z,31.6
2019-03-24T02:35:35.544Z,31.1
2019-03-24T02:36:24.521Z,30.4
2019-03-24T02:37:15.318Z,29.6
2019-03-24T02:38:05.334Z,28.8
2019-03-24T02:38:56.271Z,28.1
2019-03-24T02:39:46.816Z,27.4
2019-03-24T02:40:35.517Z,27
2019-03-24T02:41:26.325Z,26.8
2019-03-24T02:42:16.661Z,27
2019-03-24T02:43:06.529Z,27
2019-03-24T02:43:55.995Z,26.9
2019-03-24T02:44:46.339Z,26.9
2019-03-24T02:45:36.946Z,26.9
2019-03-24T02:46:31.921Z,26.8
2019-03-24T02:47:16.656Z,26.7
2019-03-24T02:48:07.230Z,26.7
2019-03-24T02:48:57.453Z,26.7
2019-03-24T02:49:46.171Z,26.6
2019-03-24T02:50:36.684Z,26.6
2019-03-24T02:51:27.165Z,26.6
2019-03-24T02:52:17.738Z,26.3
2019-03-24T02:53:07.525Z,26
2019-03-24T02:53:56.974Z,25.8
2019-03-24T02:54:48.226Z,25.6
2019-03-24T02:55:37.098Z,25.6
2019-03-24T02:56:27.643Z,25.4
2019-03-24T02:57:17.546Z,25.4
2019-03-24T02:58:07.797Z,25.3
2019-03-24T02:58:58.211Z,25.1
2019-03-24T02:59:48.445Z,26.1
2019-03-24T03:00:38.235Z,27.2
2019-03-24T03:01:28.542Z,28.1
2019-03-24T03:02:18.645Z,28.7
2019-03-24T03:03:07.652Z,29.2
2019-03-24T03:03:59.331Z,29.6
2019-03-24T03:07:28.894Z,31
2019-03-24T03:08:18.752Z,31.3
2019-03-24T03:09:08.225Z,31.6
2019-03-24T03:09:59.318Z,31.8
2019-03-24T03:10:48.904Z,32.1
2019-03-24T03:11:39.939Z,32.3
2019-03-24T03:12:28.526Z,32.5
2019-03-24T03:13:18.695Z,32.7
2019-03-24T03:14:09.082Z,32.8
2019-03-24T03:14:59.322Z,33
2019-03-24T03:15:50.036Z,33.2
2019-03-24T03:16:46.172Z,33
2019-03-24T03:17:30.232Z,32.2
2019-03-24T03:18:19.361Z,32.1
2019-03-24T03:19:09.739Z,31.9
2019-03-24T03:20:01.608Z,31.5
2019-03-24T03:20:50.939Z,30.9
2019-03-24T03:21:40.467Z,30.3
2019-03-24T03:22:30.234Z,29.6
2019-03-24T03:23:20.592Z,28.8
2019-03-24T03:24:10.902Z,28.1
2019-03-24T03:25:00.366Z,27.5
2019-03-24T03:25:50.179Z,27.1
2019-03-24T03:26:40.748Z,27.2
2019-03-24T03:27:29.690Z,27.2
2019-03-24T03:28:21.159Z,27.1
2019-03-24T03:29:10.771Z,27.1
2019-03-24T03:30:00.578Z,27
2019-03-24T03:30:51.721Z,26.9
2019-03-24T03:31:41.583Z,26.9
2019-03-24T03:32:31.159Z,26.8
2019-03-24T03:33:21.442Z,26.8
2019-03-24T03:34:12.004Z,26.8
2019-03-24T03:35:02.479Z,26.7
2019-03-24T03:35:51.566Z,26.7
2019-03-24T03:36:41.933Z,26.6
2019-03-24T03:37:31.584Z,26.3
2019-03-24T03:38:22.456Z,26
2019-03-24T03:39:12.075Z,25.8
2019-03-24T03:40:07.487Z,25.7
2019-03-24T03:40:52.519Z,25.6
2019-03-24T03:41:42.165Z,25.6
2019-03-24T03:42:31.994Z,25.4
2019-03-24T03:43:21.992Z,25.4
2019-03-24T03:44:11.522Z,25.3
2019-03-24T03:45:02.491Z,25.6
2019-03-24T03:45:52.225Z,26.8
2019-03-24T03:47:31.488Z,28.6
2019-03-24T03:48:22.655Z,29.1
2019-03-24T03:49:12.822Z,29.5
2019-03-24T03:50:02.686Z,29.9
2019-03-24T03:50:52.597Z,30.3
2019-03-24T03:51:42.359Z,30.6
2019-03-24T03:52:32.077Z,30.9
2019-03-24T03:53:22.494Z,31.3
2019-03-24T03:54:12.983Z,31.5
2019-03-24T03:55:03.265Z,31.8
2019-03-24T03:55:52.794Z,32
2019-03-24T03:56:42.262Z,32.2
2019-03-24T03:57:32.765Z,32.4
2019-03-24T03:58:22.802Z,32.6
2019-03-24T03:59:12.356Z,32.8
2019-03-24T04:00:03.627Z,33
2019-03-24T04:00:53.641Z,33.2
2019-03-24T04:01:42.783Z,33.2
2019-03-24T04:02:33.396Z,32.3
2019-03-24T04:03:23.721Z,32.1
2019-03-24T04:04:13.358Z,32
2019-03-24T04:05:03.127Z,31.6
2019-03-24T04:05:53.119Z,31.1
2019-03-24T04:06:42.091Z,30.5
2019-03-24T04:07:32.294Z,29.8
2019-03-24T04:08:23.911Z,29
2019-03-24T04:09:13.160Z,28.3
2019-03-24T04:10:03.593Z,27.6
2019-03-24T04:10:54.016Z,27.2
2019-03-24T04:11:43.501Z,26.9
2019-03-24T04:12:34.400Z,27.1
2019-03-24T04:13:23.639Z,27.1
2019-03-24T04:14:14.478Z,27.1
2019-03-24T04:15:04.341Z,27
2019-03-24T04:15:53.854Z,26.9
2019-03-24T04:16:44.174Z,26.9
2019-03-24T04:17:34.235Z,26.8
2019-03-24T04:18:23.849Z,26.8
2019-03-24T04:19:13.771Z,26.8
2019-03-24T04:20:04.822Z,26.7
2019-03-24T04:20:54.994Z,26.7
2019-03-24T04:21:44.232Z,26.6
2019-03-24T04:22:34.874Z,26.5
2019-03-24T04:23:25.251Z,26.1
2019-03-24T04:24:14.986Z,25.9
2019-03-24T04:25:05.296Z,25.8
2019-03-24T04:25:54.449Z,25.7
2019-03-24T04:26:44.918Z,25.6
2019-03-24T04:27:35.530Z,25.5
2019-03-24T04:28:23.725Z,25.4
2019-03-24T04:29:14.333Z,25.4
2019-03-24T04:30:03.074Z,25.1
2019-03-24T04:30:54.416Z,25.8
2019-03-24T04:31:45.841Z,27
2019-03-24T04:32:34.848Z,27.9
2019-03-24T04:33:24.915Z,28.6
2019-03-24T04:34:14.786Z,29.1
2019-03-24T04:35:04.922Z,29.5
2019-03-24T04:35:55.743Z,29.9
2019-03-24T04:36:45.022Z,30.3
2019-03-24T04:37:38.489Z,30.6
2019-03-24T04:38:25.953Z,30.9
2019-03-24T04:39:15.772Z,31.1
2019-03-24T04:40:05.520Z,31.3
2019-03-24T04:40:54.639Z,31.6
2019-03-24T04:41:45.670Z,31.8
2019-03-24T04:42:34.405Z,31.1
2019-03-24T04:43:25.625Z,30.1
2019-03-24T04:44:16.377Z,28.1
2019-03-24T04:45:05.630Z,26.6
2019-03-24T04:45:55.906Z,26.6
2019-03-24T04:46:45.173Z,26.6
2019-03-24T04:47:36.044Z,27.7
2019-03-24T04:48:25.593Z,28.6
2019-03-24T04:49:16.379Z,29.3
2019-03-24T04:50:06.541Z,29.9
2019-03-24T04:50:56.364Z,30.3
2019-03-24T04:51:45.806Z,30.7
2019-03-24T04:52:36.702Z,31
2019-03-24T04:53:27.811Z,31.3
2019-03-24T04:54:15.708Z,31.7
2019-03-24T04:55:06.363Z,31.9
2019-03-24T04:55:55.584Z,32.2
2019-03-24T04:56:46.731Z,32.4
2019-03-24T04:57:36.998Z,32.6
2019-03-24T04:58:26.311Z,32.8
2019-03-24T04:59:15.563Z,32.5
2019-03-24T05:00:06.668Z,31.8
2019-03-24T05:00:56.878Z,31.8
2019-03-24T05:01:45.719Z,31.6
2019-03-24T05:02:37.261Z,31.1
2019-03-24T05:03:27.227Z,30.6
2019-03-24T05:04:17.155Z,29.9
2019-03-24T05:05:07.741Z,29.1
2019-03-24T05:05:57.173Z,28.4
2019-03-24T05:06:47.734Z,27.8
2019-03-24T05:07:36.952Z,27.2
2019-03-24T05:08:27.608Z,26.8
2019-03-24T05:09:18.168Z,26.8
2019-03-24T05:10:07.980Z,26.9
2019-03-24T05:10:57.195Z,26.9
2019-03-24T05:11:47.273Z,26.8
2019-03-24T05:12:37.041Z,26.8
2019-03-24T05:13:27.654Z,26.6
2019-03-24T05:14:18.280Z,26.6
2019-03-24T05:15:07.883Z,26.6
2019-03-24T05:15:57.967Z,26.5
2019-03-24T05:16:47.903Z,26.5
2019-03-24T05:17:37.965Z,26.4
2019-03-24T05:18:28.289Z,26.4
2019-03-24T05:19:18.364Z,26.4
2019-03-24T05:20:08.625Z,26.1
2019-03-24T05:20:57.359Z,25.8
2019-03-24T05:21:49.034Z,25.6
2019-03-24T05:22:38.602Z,25.5
2019-03-24T05:23:28.307Z,25.4
2019-03-24T05:24:18.467Z,25.3
2019-03-24T05:25:08.852Z,25.3
2019-03-24T05:25:58.854Z,25.2
2019-03-24T05:26:49.107Z,25.1
2019-03-24T05:27:39.208Z,25.1
2019-03-24T05:28:28.491Z,25.3
2019-03-24T05:29:19.304Z,26.6
2019-03-24T05:30:09.362Z,27.6
2019-03-24T05:30:58.847Z,28.3
2019-03-24T05:31:49.204Z,28.8
2019-03-24T05:32:39.799Z,29.3
2019-03-24T05:33:29.097Z,29.7
2019-03-24T05:34:19.399Z,30.1
2019-03-24T05:35:10.641Z,30.4
2019-03-24T05:35:59.327Z,30.8
2019-03-24T05:36:49.823Z,31.1
2019-03-24T05:37:39.369Z,31.4
2019-03-24T05:38:29.777Z,31.8
2019-03-24T05:39:19.004Z,32
2019-03-24T05:40:09.060Z,32.3
2019-03-24T05:41:00.206Z,32.5
2019-03-24T05:41:49.686Z,32.7
2019-03-24T05:42:39.828Z,32.9
2019-03-24T05:43:30.673Z,33.1
2019-03-24T05:44:20.234Z,33
2019-03-24T05:45:10.816Z,32.1
2019-03-24T05:46:01.346Z,32
2019-03-24T05:46:50.001Z,31.9
2019-03-24T05:47:44.464Z,31.4
2019-03-24T05:48:31.315Z,30.8
2019-03-24T05:49:20.723Z,30.2
2019-03-24T05:50:10.261Z,29.5
2019-03-24T05:51:01.457Z,28.8
2019-03-24T05:51:50.893Z,28
2019-03-24T05:52:41.000Z,27.5
2019-03-24T05:53:31.354Z,27.1
2019-03-24T05:54:20.854Z,27.2
2019-03-24T05:55:10.913Z,27.2
2019-03-24T05:56:01.815Z,27.1
2019-03-24T05:56:50.745Z,27.1
2019-03-24T05:57:41.650Z,26.9
2019-03-24T05:58:32.007Z,26.9
2019-03-24T05:59:21.790Z,26.8
2019-03-24T06:00:11.898Z,26.8
2019-03-24T06:01:01.337Z,26.7
2019-03-24T06:01:51.635Z,26.6
2019-03-24T06:02:41.468Z,26.6
2019-03-24T06:05:28.873Z,26.2
2019-03-24T06:06:18.654Z,25.9
2019-03-24T06:07:09.285Z,25.8
2019-03-24T06:07:59.349Z,25.6
2019-03-24T06:08:50.180Z,25.6
2019-03-24T06:09:39.757Z,25.4
2019-03-24T06:10:29.267Z,25.4
2019-03-24T06:11:18.480Z,25.3
2019-03-24T06:12:08.820Z,25.3
2019-03-24T06:12:59.752Z,25.1
2019-03-24T06:13:49.337Z,25.7
2019-03-24T06:14:40.034Z,26.9
2019-03-24T06:15:29.584Z,27.9
2019-03-24T06:16:19.664Z,28.6
2019-03-24T06:17:10.347Z,29.2
2019-03-24T06:18:00.054Z,29.7
2019-03-24T06:18:49.599Z,30.1
2019-03-24T06:19:39.064Z,30.4
2019-03-24T06:20:30.289Z,30.9
2019-03-24T06:21:19.708Z,31.2
2019-03-24T06:22:10.409Z,31.8
2019-03-24T06:22:59.375Z,31.9
2019-03-24T06:23:50.231Z,32.3
2019-03-24T06:24:40.306Z,32.6
2019-03-24T06:25:30.724Z,32.9
2019-03-24T06:26:20.418Z,33.2
2019-03-24T06:27:09.987Z,33.4
2019-03-24T06:28:01.117Z,32.4
2019-03-24T07:05:28.811Z,31.1
2019-03-24T07:06:17.783Z,31.5
2019-03-24T07:07:09.528Z,31.9
2019-03-24T07:07:59.849Z,32.2
2019-03-24T07:08:48.528Z,32.6
2019-03-24T07:09:38.587Z,32.9
2019-03-24T07:10:29.213Z,33.1
2019-03-24T07:11:21.330Z,33.4
2019-03-24T07:12:09.295Z,33.7
2019-03-24T07:13:00.224Z,33.7
2019-03-24T07:13:49.992Z,32.8
2019-03-24T07:14:39.487Z,32.6
2019-03-24T07:15:29.265Z,32.6
2019-03-24T07:16:22.167Z,32.1
2019-03-24T07:17:10.207Z,31.5
2019-03-24T07:18:10.004Z,30.9
2019-03-24T07:18:49.513Z,30
2019-03-24T07:19:39.285Z,29.4
2019-03-24T07:20:30.494Z,28.6
2019-03-24T07:21:20.266Z,28
2019-03-24T07:22:12.357Z,27.6
2019-03-24T07:23:00.377Z,27.2
2019-03-24T07:23:50.132Z,26.9
2019-03-24T07:24:40.467Z,26.8
2019-03-24T07:25:29.982Z,26.6
2019-03-24T07:26:20.859Z,26.5
2019-03-24T07:27:10.396Z,26.4
2019-03-24T07:28:00.445Z,26.4
2019-03-24T07:28:49.956Z,26.3
2019-03-24T07:29:42.211Z,26.3
2019-03-24T07:30:31.222Z,26.3
2019-03-24T07:31:20.721Z,26.2
2019-03-24T07:32:10.768Z,26.2
2019-03-24T07:33:01.123Z,26.2
2019-03-24T07:33:50.594Z,26.2
2019-03-24T07:34:40.117Z,26.2
2019-03-24T07:35:31.273Z,26.1
2019-03-24T07:36:20.820Z,26.1
2019-03-24T07:37:11.401Z,26.1
2019-03-24T07:38:02.012Z,26.1
2019-03-24T07:38:51.526Z,26.1
2019-03-24T07:39:41.316Z,26
2019-03-24T07:40:29.992Z,26
2019-03-24T07:41:21.178Z,25.9
2019-03-24T07:42:13.323Z,25.9
2019-03-24T07:43:01.310Z,25.9
2019-03-24T07:43:51.338Z,25.9
2019-03-24T07:44:41.095Z,25.8
2019-03-24T07:45:31.733Z,25.8
2019-03-24T07:46:22.331Z,25.8
2019-03-24T07:47:12.386Z,25.8
2019-03-24T07:48:02.296Z,25.7
2019-03-24T07:48:52.532Z,25.7
2019-03-24T07:49:41.533Z,25.6
2019-03-24T07:50:32.083Z,25.6
2019-03-24T07:51:22.173Z,25.6
2019-03-24T07:52:12.536Z,25.5
2019-03-24T07:53:01.961Z,25.4
2019-03-24T07:53:52.878Z,25.4
2019-03-24T07:54:42.659Z,25.4
2019-03-24T07:55:32.483Z,25.3
2019-03-24T07:56:22.232Z,25.3
2019-03-24T07:57:12.135Z,25.3
2019-03-24T07:58:03.488Z,25.2
2019-03-24T07:58:53.805Z,25.2
2019-03-24T07:59:43.055Z,25.2
2019-03-24T08:00:33.070Z,25.1
2019-03-24T08:01:22.304Z,25.1
2019-03-24T08:02:13.202Z,25
2019-03-24T08:03:03.367Z,25
2019-03-24T08:03:52.480Z,24.9
2019-03-24T08:04:43.387Z,24.9
2019-03-24T08:05:33.502Z,24.9
2019-03-24T08:06:23.782Z,24.8
2019-03-24T08:07:13.603Z,24.8
2019-03-24T08:08:03.371Z,24.8
2019-03-24T08:08:53.132Z,24.7
2019-03-24T08:09:44.962Z,24.7
2019-03-24T08:10:33.246Z,24.6
2019-03-24T08:11:23.629Z,24.6
2019-03-24T08:12:13.130Z,24.6
2019-03-24T08:13:04.582Z,24.5
2019-03-24T08:14:00.722Z,24.5
2019-03-24T08:14:44.647Z,24.4
2019-03-24T08:15:34.269Z,24.4
2019-03-24T08:16:23.461Z,24.4
2019-03-24T08:17:13.450Z,24.4
2019-03-24T08:18:04.339Z,24.4
2019-03-24T08:18:54.131Z,24.3
2019-03-24T08:19:43.985Z,24.3
2019-03-24T08:20:33.577Z,24.3
2019-03-24T08:21:23.526Z,24.2
2019-03-24T08:22:13.916Z,24.2
2019-03-24T08:23:05.004Z,24.1
2019-03-24T08:23:54.495Z,24.1
2019-03-24T08:24:44.620Z,24.1
2019-03-24T08:25:32.763Z,24.1
2019-03-24T08:26:23.689Z,24
2019-03-24T08:27:14.286Z,24
2019-03-24T08:28:04.069Z,23.9
2019-03-24T08:28:55.136Z,23.9
2019-03-24T08:29:45.538Z,23.9
2019-03-24T08:30:36.818Z,23.9
2019-03-24T08:31:25.665Z,23.9
2019-03-24T08:32:14.850Z,23.9
2019-03-24T08:33:04.960Z,23.8
2019-03-24T08:33:55.533Z,23.8
2019-03-24T08:34:45.341Z,23.8
2019-03-24T08:35:36.235Z,23.8
2019-03-24T08:36:25.439Z,23.8
2019-03-24T08:37:15.540Z,23.7
2019-03-24T08:38:05.603Z,23.6
2019-03-24T08:38:56.432Z,23.6
2019-03-24T08:39:45.965Z,23.5
2019-03-24T08:40:36.300Z,23.4
2019-03-24T08:41:25.223Z,23.4
2019-03-24T08:42:16.173Z,23.4
2019-03-24T08:43:06.456Z,23.3
2019-03-24T08:43:56.536Z,23.2
2019-03-24T08:44:46.590Z,23.2
2019-03-24T08:45:36.071Z,23.1
2019-03-24T08:46:25.857Z,23.1
2019-03-24T08:47:16.485Z,23.1
2019-03-24T08:48:06.275Z,23
2019-03-24T08:48:56.869Z,23
2019-03-24T08:49:46.672Z,22.9
2019-03-24T08:50:36.925Z,22.9
2019-03-24T08:51:25.990Z,22.9
2019-03-24T08:52:16.333Z,22.8
2019-03-24T08:53:06.902Z,22.8
2019-03-24T08:53:56.952Z,22.8
2019-03-24T08:54:46.477Z,22.7
2019-03-24T08:55:37.182Z,22.7
2019-03-24T08:56:27.399Z,22.7
2019-03-24T08:57:16.368Z,22.6
2019-03-24T08:58:07.639Z,22.6
2019-03-24T08:58:56.486Z,22.6
2019-03-24T08:59:47.718Z,22.6
2019-03-24T09:00:38.526Z,22.6
2019-03-24T09:01:27.206Z,22.5
2019-03-24T09:02:16.781Z,22.5
2019-03-24T09:03:07.908Z,22.4
2019-03-24T09:03:57.556Z,22.4
2019-03-24T09:04:48.042Z,22.4
2019-03-24T09:05:40.389Z,22.4
2019-03-24T09:06:27.606Z,22.4
2019-03-24T09:07:17.977Z,22.4
2019-03-24T09:08:07.829Z,22.4
2019-03-24T09:08:57.226Z,22.4
2019-03-24T09:09:47.553Z,22.3
2019-03-24T09:10:37.077Z,22.3
2019-03-24T09:11:38.868Z,22.3
2019-03-24T09:12:18.563Z,22.3
2019-03-24T09:13:08.077Z,22.3
2019-03-24T09:13:58.153Z,22.2
2019-03-24T09:14:48.790Z,22.2
2019-03-24T09:15:38.287Z,22.1
2019-03-24T09:16:28.123Z,22.1
2019-03-24T09:17:17.908Z,22.1
2019-03-24T09:18:08.558Z,22.1
2019-03-24T09:19:01.068Z,22.1
2019-03-24T09:19:48.848Z,22.1
2019-03-24T09:20:49.318Z,22.1
2019-03-24T09:21:28.651Z,22
2019-03-24T09:22:18.223Z,22
2019-03-24T09:23:11.109Z,22
2019-03-24T09:23:58.920Z,21.9
2019-03-24T09:24:48.963Z,21.9
2019-03-24T09:25:40.163Z,21.9
2019-03-24T09:26:28.762Z,21.9
2019-03-24T09:27:19.150Z,21.9
2019-03-24T09:28:12.086Z,21.9
2019-03-24T09:29:01.915Z,21.9
2019-03-24T09:29:49.628Z,21.9
2019-03-24T09:30:39.947Z,21.8
2019-03-24T09:31:28.947Z,21.8
2019-03-24T09:32:19.570Z,21.8
2019-03-24T09:33:09.666Z,21.8
2019-03-24T09:33:59.479Z,21.8
2019-03-24T09:34:49.762Z,21.8
2019-03-24T09:35:39.857Z,21.8
2019-03-24T09:36:29.792Z,21.7
2019-03-24T09:37:19.865Z,21.7
2019-03-24T09:38:09.935Z,21.7
2019-03-24T09:39:00.250Z,21.7
2019-03-24T09:39:49.795Z,21.7
2019-03-24T09:40:40.142Z,21.6
2019-03-24T09:41:30.742Z,21.6
2019-03-24T09:42:20.502Z,21.6
2019-03-24T09:43:10.332Z,21.6
2019-03-24T09:43:59.559Z,21.6
2019-03-24T09:44:49.899Z,21.6
2019-03-24T09:45:40.326Z,21.6
2019-03-24T09:46:31.094Z,21.6
2019-03-24T09:47:20.279Z,21.5
2019-03-24T09:48:11.204Z,21.5
2019-03-24T09:49:11.051Z,21.5
2019-03-24T09:49:50.746Z,21.5
2019-03-24T09:50:41.007Z,21.4
2019-03-24T09:51:31.149Z,21.4
2019-03-24T09:52:20.661Z,21.4
2019-03-24T09:53:11.358Z,21.4
2019-03-24T09:54:01.929Z,21.4
2019-03-24T09:54:51.155Z,21.4
2019-03-24T09:55:41.715Z,21.4
2019-03-24T09:56:31.226Z,21.4
2019-03-24T09:57:21.303Z,21.4
2019-03-24T09:58:10.835Z,21.4
2019-03-24T09:59:01.416Z,21.4
2019-03-24T09:59:52.018Z,21.3
2019-03-24T10:00:42.108Z,21.3
2019-03-24T10:01:32.178Z,21.3
2019-03-24T10:02:22.210Z,21.3
2019-03-24T10:03:11.444Z,21.3
2019-03-24T10:04:02.308Z,21.3
2019-03-24T10:06:28.138Z,21.3
2019-03-24T10:07:17.982Z,21.3
2019-03-24T10:08:08.301Z,21.3
2019-03-24T10:08:58.860Z,21.3
2019-03-24T10:09:48.105Z,21.2
2019-03-24T10:10:39.282Z,21.2
2019-03-24T10:11:29.322Z,21.2
2019-03-24T10:12:19.184Z,21.2
2019-03-24T10:13:09.486Z,21.2
2019-03-24T10:20:39.749Z,21.1
2019-03-24T10:21:30.337Z,21.1
2019-03-24T10:22:18.716Z,21.1
2019-03-24T10:23:10.762Z,21.1
2019-03-24T10:24:00.569Z,21.1
2019-03-24T10:24:50.094Z,21.1
2019-03-24T10:25:40.349Z,21.1
2019-03-24T10:26:30.416Z,21.1
2019-03-24T10:27:19.982Z,21
2019-03-24T10:28:11.134Z,21
2019-03-24T10:29:00.057Z,21
2019-03-24T10:29:50.311Z,21
2019-03-24T10:30:39.874Z,21
2019-03-24T10:31:30.782Z,21
2019-03-24T10:32:21.148Z,21
2019-03-24T10:33:11.025Z,21
2019-03-24T10:34:01.304Z,20.9
2019-03-24T10:34:51.029Z,20.9
2019-03-24T10:35:40.796Z,20.9
2019-03-24T10:36:30.406Z,20.9
2019-03-24T10:37:21.265Z,20.9
2019-03-24T10:38:09.913Z,20.9
2019-03-24T10:39:01.311Z,20.9
2019-03-24T10:39:51.248Z,20.9
2019-03-24T10:40:41.226Z,20.9
2019-03-24T10:41:30.129Z,20.9
2019-03-24T10:42:20.735Z,20.9
2019-03-24T10:43:12.210Z,20.9
2019-03-24T10:44:01.135Z,20.9
2019-03-24T10:44:50.648Z,20.9
2019-03-24T10:45:42.093Z,20.9
2019-03-24T10:46:31.026Z,20.9
2019-03-24T10:47:20.873Z,20.9
2019-03-24T10:48:11.445Z,20.8
2019-03-24T10:49:01.506Z,20.8
2019-03-24T10:49:51.933Z,20.8
2019-03-24T10:50:42.380Z,20.8
2019-03-24T10:51:31.224Z,20.8
2019-03-24T10:52:22.007Z,20.8
2019-03-24T10:53:11.848Z,20.8
2019-03-24T10:54:02.142Z,20.8
2019-03-24T10:54:51.640Z,20.8
2019-03-24T10:55:42.163Z,20.8
2019-03-24T10:56:31.772Z,20.8
2019-03-24T10:57:22.410Z,20.8
2019-03-24T10:58:12.782Z,20.8
2019-03-24T10:59:03.304Z,20.8
2019-03-24T10:59:52.555Z,20.8
2019-03-24T11:00:42.791Z,20.8
2019-03-24T11:01:31.610Z,20.8
2019-03-24T11:02:23.075Z,20.8
2019-03-24T11:03:13.102Z,20.8
2019-03-24T11:04:02.860Z,20.8
2019-03-24T11:05:07.890Z,20.8
2019-03-24T11:05:43.304Z,20.8
2019-03-24T11:06:32.481Z,20.8
2019-03-24T11:07:23.439Z,20.7
2019-03-24T11:08:13.485Z,20.7
2019-03-24T11:09:02.764Z,20.7
2019-03-24T11:09:53.855Z,20.7
2019-03-24T11:10:43.110Z,20.7
2019-03-24T11:11:32.306Z,20.7
2019-03-24T11:12:23.213Z,20.7
2019-03-24T11:13:27.962Z,20.7
2019-03-24T11:14:04.162Z,20.7
2019-03-24T11:14:53.393Z,20.7
2019-03-24T11:15:43.495Z,20.7
2019-03-24T11:16:34.351Z,20.7
2019-03-24T11:17:23.907Z,20.7
2019-03-24T11:18:13.652Z,20.6
2019-03-24T11:19:04.239Z,20.7
2019-03-24T11:19:53.546Z,20.7
2019-03-24T11:20:43.802Z,20.7
2019-03-24T11:21:34.483Z,20.7
2019-03-24T11:22:24.488Z,20.7
2019-03-24T11:23:14.529Z,20.7
2019-03-24T11:24:04.911Z,20.7
2019-03-24T11:24:54.701Z,20.6
2019-03-24T11:25:43.643Z,20.6
2019-03-24T11:26:35.066Z,20.7
2019-03-24T11:27:24.836Z,20.6
2019-03-24T11:28:14.154Z,20.6
2019-03-24T11:29:05.001Z,20.7
2019-03-24T11:29:54.823Z,20.6
2019-03-24T11:30:44.783Z,20.6
2019-03-24T11:31:34.596Z,20.6
2019-03-24T11:32:24.791Z,20.6
2019-03-24T11:33:15.324Z,20.6
2019-03-24T11:34:05.404Z,20.6
2019-03-24T11:34:55.388Z,20.6
2019-03-24T11:35:44.353Z,20.6
2019-03-24T11:36:35.257Z,20.6
2019-03-24T11:37:25.853Z,20.6
2019-03-24T11:38:15.677Z,20.6
2019-03-24T11:39:06.557Z,20.6
2019-03-24T11:39:54.707Z,20.6
2019-03-24T11:40:46.372Z,20.6
2019-03-24T11:41:36.150Z,20.6
2019-03-24T11:42:25.120Z,20.6
2019-03-24T11:43:16.281Z,20.6
2019-03-24T11:44:05.522Z,20.6
2019-03-24T11:44:54.750Z,20.6
2019-03-24T11:45:46.253Z,20.6
2019-03-24T11:46:50.911Z,20.6
2019-03-24T11:47:37.760Z,20.6
2019-03-24T11:48:15.585Z,20.6
2019-03-24T11:49:06.232Z,20.6
2019-03-24T11:49:56.897Z,20.6
2019-03-24T11:50:45.431Z,20.6
2019-03-24T11:51:36.612Z,20.6
2019-03-24T11:52:26.135Z,20.6
2019-03-24T11:53:16.172Z,20.6
2019-03-24T11:54:06.552Z,20.6
2019-03-24T11:54:56.622Z,20.6
2019-03-24T11:55:46.437Z,20.6
2019-03-24T11:56:36.454Z,20.6
2019-03-24T11:57:26.784Z,20.6
2019-03-24T11:58:17.106Z,20.6
2019-03-24T11:59:07.490Z,20.6
2019-03-24T11:59:56.724Z,20.6